Time;durP1;ratioP1;P1;durP2;ratioP2;P2;SDS_P1;SDS_P2;PMS_P1;PMS_P2;Temp;Humidity;BMP_temperature;BMP_pressure;BME280_temperature;BME280_humidity;BME280_pressure;Samples;Min_cycle;Max_cycle;Signal;HPM_P1;HPM_P2
2022/08/14 00:00:20;;;;;;;;;;;27.80;52.10;;;;;;857146;23;948;-82
2022/08/14 00:00:41;;;;;;;;;;;27.80;52.10;;;;;;852777;23;1584;-81
2022/08/14 00:01:02;;;;;;;;;;;27.80;52.00;;;;;;853480;23;857;-82
2022/08/14 00:01:23;;;;;;;;;;;27.80;52.00;;;;;;857185;23;805;-82
2022/08/14 00:01:44;;;;;;;;;;;27.80;52.00;;;;;;857118;23;813;-83
2022/08/14 00:02:05;;;;;;;;;;;27.80;51.90;;;;;;857118;23;841;-82
2022/08/14 00:02:26;;;;;;;;;;;27.80;52.00;;;;;;858092;23;827;-82
2022/08/14 00:02:46;;;;;;;;;;;;;;;;;;861461;23;801;-82
2022/08/14 00:03:07;;;;;;;;;;;27.80;52.00;;;;;;861417;23;820;-82
2022/08/14 00:03:30;;;;;;;;;;;27.80;51.90;;;;;;861590;23;766;-82
2022/08/14 00:03:50;;;;;;;;;;;27.90;52.00;;;;;;861600;23;828;-83
2022/08/14 00:04:11;;;;;;;;;;;27.80;51.90;;;;;;856926;23;883;-82
2022/08/14 00:04:32;;;;;;;;;;;;;;;;;;852208;23;1498;-82
2022/08/14 00:04:53;;;;;;;;;;;26.70;51.10;;;;;;852892;23;865;-82
2022/08/14 00:05:15;;;;;;;;;;;27.90;52.00;;;;;;852686;23;905;-82
2022/08/14 00:05:36;;;;;;;;;;;27.90;52.00;;;;;;852777;23;877;-83
2022/08/14 00:05:57;;;;;;;;;;;27.80;51.90;;;;;;853848;23;883;-84
2022/08/14 00:06:18;;;;;;;;;;;27.80;51.90;;;;;;858325;23;773;-83
2022/08/14 00:06:38;;;;;;;;;;;27.90;52.00;;;;;;861507;23;769;-82
2022/08/14 00:06:59;;;;;;;;;;;27.80;51.90;;;;;;861497;23;962;-83
2022/08/14 00:07:19;;;;;;;;;;;27.90;52.00;;;;;;861416;23;912;-83
2022/08/14 00:07:41;;;;;;;;;;;27.90;51.90;;;;;;861357;23;916;-83
2022/08/14 00:08:02;;;;;;;;;;;27.90;51.90;;;;;;861595;23;885;-81
2022/08/14 00:08:22;;;;;;;;;;;27.80;51.90;;;;;;857032;23;1286;-83
2022/08/14 00:08:43;;;;;;;;;;;27.90;52.00;;;;;;856783;23;797;-83
2022/08/14 00:09:03;;;;;;;;;;;27.80;51.80;;;;;;857119;23;877;-82
2022/08/14 00:09:24;;;;;;;;;;;27.90;52.00;;;;;;856596;23;1208;-83
2022/08/14 00:09:45;;;;;;;;;;;27.90;52.00;;;;;;852182;23;1105;-82
2022/08/14 00:10:06;;;;;;;;;;;27.90;52.00;;;;;;853369;23;895;-82
2022/08/14 00:10:27;;;;;;;;;;;27.90;52.00;;;;;;857130;23;997;-82
2022/08/14 00:10:48;;;;;;;;;;;27.90;52.00;;;;;;856882;23;837;-82
2022/08/14 00:11:08;;;;;;;;;;;27.90;51.90;;;;;;857117;23;860;-85
2022/08/14 00:11:29;;;;;;;;;;;27.90;52.00;;;;;;857792;23;881;-82
2022/08/14 00:11:49;;;;;;;;;;;27.90;52.00;;;;;;861403;23;1940;-83
2022/08/14 00:12:10;;;;;;;;;;;27.90;52.00;;;;;;861431;23;971;-83
2022/08/14 00:12:32;;;;;;;;;;;27.80;51.90;;;;;;861370;23;810;-85
2022/08/14 00:12:53;;;;;;;;;;;27.90;52.00;;;;;;861430;23;513;-83
2022/08/14 00:13:15;;;;;;;;;;;27.80;51.90;;;;;;861614;23;853;-82
2022/08/14 00:13:36;;;;;;;;;;;27.90;51.90;;;;;;861351;23;854;-84
2022/08/14 00:13:57;;;;;;;;;;;;;;;;;;861465;23;769;-82
2022/08/14 00:14:17;;;;;;;;;;;27.90;51.90;;;;;;861390;23;913;-83
2022/08/14 00:14:38;;;;;;;;;;;;;;;;;;861513;23;816;-85
2022/08/14 00:15:00;;;;;;;;;;;27.90;51.90;;;;;;861462;23;881;-83
2022/08/14 00:15:31;;;;;;;;;;;27.90;52.00;;;;;;861573;23;794;-83
2022/08/14 00:15:52;;;;;;;;;;;27.90;51.80;;;;;;861466;23;818;-82
2022/08/14 00:16:13;;;;;;;;;;;27.90;51.90;;;;;;861418;23;825;-82
2022/08/14 00:16:33;;;;;;;;;;;27.90;51.90;;;;;;861324;23;466;-82
2022/08/14 00:16:54;;;;;;;;;;;27.90;51.90;;;;;;861453;23;833;-81
2022/08/14 00:17:15;;;;;;;;;;;27.90;51.90;;;;;;861635;23;828;-81
2022/08/14 00:17:35;;;;;;;;;;;27.90;51.90;;;;;;861465;23;765;-82
2022/08/14 00:17:56;;;;;;;;;;;27.90;52.00;;;;;;861345;23;937;-83
2022/08/14 00:18:19;;;;;;;;;;;27.90;51.90;;;;;;856908;23;1813;-83
2022/08/14 00:18:40;;;;;;;;;;;27.90;51.80;;;;;;852789;23;528;-84
2022/08/14 00:19:01;;;;;;;;;;;27.90;51.90;;;;;;852629;23;762;-82
2022/08/14 00:19:21;;;;;;;;;;;27.80;51.80;;;;;;852884;23;908;-82
2022/08/14 00:19:42;;;;;;;;;;;27.90;51.80;;;;;;852829;23;801;-85
2022/08/14 00:20:03;;;;;;;;;;;27.80;51.80;;;;;;853984;23;840;-85
2022/08/14 00:20:25;;;;;;;;;;;27.80;51.90;;;;;;857890;23;814;-85
2022/08/14 00:20:46;;;;;;;;;;;27.80;51.80;;;;;;856725;23;1197;-84
2022/08/14 00:21:07;;;;;;;;;;;27.90;52.00;;;;;;857099;23;797;-84
2022/08/14 00:21:27;;;;;;;;;;;27.90;52.00;;;;;;857121;23;880;-83
2022/08/14 00:21:48;;;;;;;;;;;;;;;;;;856946;23;984;-85
2022/08/14 00:22:11;;;;;;;;;;;27.90;52.00;;;;;;856789;23;951;-85
2022/08/14 00:22:31;;;;;;;;;;;27.90;52.00;;;;;;856943;23;918;-83
2022/08/14 00:22:52;;;;;;;;;;;27.90;52.00;;;;;;856935;23;921;-84
2022/08/14 00:23:13;;;;;;;;;;;27.90;52.00;;;;;;857090;23;789;-83
2022/08/14 00:23:34;;;;;;;;;;;27.90;52.10;;;;;;852792;23;939;-82
2022/08/14 00:23:55;;;;;;;;;;;27.80;52.10;;;;;;853636;23;861;-83
2022/08/14 00:24:17;;;;;;;;;;;27.90;52.40;;;;;;856961;23;1216;-83
2022/08/14 00:24:38;;;;;;;;;;;27.90;52.90;;;;;;857103;23;805;-84
2022/08/14 00:24:58;;;;;;;;;;;27.90;53.00;;;;;;856935;23;861;-84
2022/08/14 00:25:19;;;;;;;;;;;27.80;53.20;;;;;;852835;23;1295;-83
2022/08/14 00:25:39;;;;;;;;;;;27.90;54.20;;;;;;857135;23;818;-83
2022/08/14 00:26:00;;;;;;;;;;;27.90;53.90;;;;;;856997;23;862;-82
2022/08/14 00:26:21;;;;;;;;;;;27.90;53.50;;;;;;856657;23;918;-82
2022/08/14 00:26:42;;;;;;;;;;;27.90;53.20;;;;;;852920;23;1484;-82
2022/08/14 00:27:02;;;;;;;;;;;27.90;53.20;;;;;;853419;23;905;-82
2022/08/14 00:27:23;;;;;;;;;;;27.90;54.20;;;;;;857209;23;817;-86
2022/08/14 00:27:44;;;;;;;;;;;27.90;54.20;;;;;;857084;23;774;-83
2022/08/14 00:28:06;;;;;;;;;;;27.90;57.30;;;;;;856964;23;889;-83
2022/08/14 00:28:27;;;;;;;;;;;27.90;57.90;;;;;;857950;23;908;-87
2022/08/14 00:28:48;;;;;;;;;;;27.90;54.10;;;;;;861356;23;797;-85
2022/08/14 00:29:09;;;;;;;;;;;27.90;53.30;;;;;;861686;23;920;-85
2022/08/14 00:29:30;;;;;;;;;;;27.90;53.50;;;;;;861432;23;781;-83
2022/08/14 00:29:50;;;;;;;;;;;27.90;54.20;;;;;;861473;23;774;-83
2022/08/14 00:30:11;;;;;;;;;;;;;;;;;;861432;23;843;-85
2022/08/14 00:30:32;;;;;;;;;;;27.90;53.50;;;;;;861403;23;825;-85
2022/08/14 00:30:57;;;;;;;;;;;27.90;52.30;;;;;;861323;23;909;-84
2022/08/14 00:31:17;;;;;;;;;;;27.90;52.00;;;;;;861571;23;998;-84
2022/08/14 00:31:38;;;;;;;;;;;27.90;52.00;;;;;;861311;23;1927;-83
2022/08/14 00:31:58;;;;;;;;;;;27.90;52.00;;;;;;861427;23;922;-82
2022/08/14 00:32:19;;;;;;;;;;;27.80;51.90;;;;;;861167;23;845;-83
2022/08/14 00:32:40;;;;;;;;;;;27.80;52.20;;;;;;861239;23;876;-86
2022/08/14 00:33:00;;;;;;;;;;;27.80;52.00;;;;;;861368;23;818;-83
2022/08/14 00:33:21;;;;;;;;;;;27.80;52.00;;;;;;861583;23;832;-85
2022/08/14 00:33:41;;;;;;;;;;;27.80;52.10;;;;;;861494;23;862;-85
2022/08/14 00:34:02;;;;;;;;;;;27.80;52.00;;;;;;861391;23;814;-85
2022/08/14 00:34:23;;;;;;;;;;;27.80;52.00;;;;;;861347;23;877;-84
2022/08/14 00:34:44;;;;;;;;;;;27.80;52.00;;;;;;861211;23;821;-85
2022/08/14 00:35:06;;;;;;;;;;;27.80;52.10;;;;;;861574;23;860;-85
2022/08/14 00:35:27;;;;;;;;;;;27.80;52.10;;;;;;861304;23;957;-84
2022/08/14 00:35:47;;;;;;;;;;;27.80;52.20;;;;;;861287;23;837;-85
2022/08/14 00:36:08;;;;;;;;;;;27.80;52.40;;;;;;861456;23;931;-85
2022/08/14 00:36:29;;;;;;;;;;;27.80;52.30;;;;;;861410;23;821;-84
2022/08/14 00:36:50;;;;;;;;;;;27.70;52.20;;;;;;861286;23;925;-84
2022/08/14 00:37:10;;;;;;;;;;;27.80;52.20;;;;;;861600;23;836;-85
2022/08/14 00:37:31;;;;;;;;;;;27.70;52.10;;;;;;861547;23;838;-82
2022/08/14 00:37:52;;;;;;;;;;;27.80;52.30;;;;;;861500;23;813;-86
2022/08/14 00:38:12;;;;;;;;;;;27.80;52.30;;;;;;861229;23;869;-85
2022/08/14 00:38:33;;;;;;;;;;;27.80;52.80;;;;;;860948;23;949;-85
2022/08/14 00:38:53;;;;;;;;;;;27.80;52.50;;;;;;861285;23;793;-85
2022/08/14 00:39:14;;;;;;;;;;;27.80;52.30;;;;;;861458;23;809;-85
2022/08/14 00:39:35;;;;;;;;;;;27.80;52.30;;;;;;861326;23;885;-85
2022/08/14 00:39:55;;;;;;;;;;;;;;;;;;856878;23;1394;-85
2022/08/14 00:40:17;;;;;;;;;;;27.80;53.20;;;;;;857024;23;805;-84
2022/08/14 00:40:37;;;;;;;;;;;27.80;52.70;;;;;;856992;23;805;-82
2022/08/14 00:41:02;;;;;;;;;;;27.70;52.50;;;;;;856921;23;897;-82
2022/08/14 00:41:23;;;;;;;;;;;27.70;52.60;;;;;;857094;23;763;-83
2022/08/14 00:41:44;;;;;;;;;;;27.70;52.70;;;;;;858082;23;812;-82
2022/08/14 00:42:04;;;;;;;;;;;27.70;53.10;;;;;;861380;23;885;-83
2022/08/14 00:42:25;;;;;;;;;;;27.70;53.10;;;;;;861501;23;794;-82
2022/08/14 00:42:46;;;;;;;;;;;27.70;52.90;;;;;;861429;23;801;-82
2022/08/14 00:43:08;;;;;;;;;;;27.70;53.10;;;;;;861440;23;944;-83
2022/08/14 00:43:29;;;;;;;;;;;27.70;55.20;;;;;;861560;23;786;-85
2022/08/14 00:43:50;;;;;;;;;;;27.70;57.50;;;;;;856822;23;921;-83
2022/08/14 00:44:10;;;;;;;;;;;27.80;60.30;;;;;;857174;23;798;-84
2022/08/14 00:44:31;;;;;;;;;;;27.80;61.00;;;;;;856363;23;1195;-83
2022/08/14 00:44:52;;;;;;;;;;;27.80;63.20;;;;;;857083;23;824;-83
2022/08/14 00:45:13;;;;;;;;;;;27.80;57.00;;;;;;857006;23;819;-85
2022/08/14 00:45:34;;;;;;;;;;;27.80;57.20;;;;;;857701;23;782;-84
2022/08/14 00:45:55;;;;;;;;;;;27.80;63.40;;;;;;861246;23;738;-85
2022/08/14 00:46:15;;;;;;;;;;;27.90;62.70;;;;;;856870;23;755;-84
2022/08/14 00:46:37;;;;;;;;;;;27.80;62.10;;;;;;857111;23;762;-85
2022/08/14 00:46:58;;;;;;;;;;;27.90;64.30;;;;;;852833;23;907;-86
2022/08/14 00:47:20;;;;;;;;;;;27.80;65.90;;;;;;852100;23;1197;-85
2022/08/14 00:47:41;;;;;;;;;;;27.80;65.50;;;;;;853024;23;770;-85
2022/08/14 00:48:02;;;;;;;;;;;27.80;65.20;;;;;;852998;23;797;-85
2022/08/14 00:48:23;;;;;;;;;;;27.90;66.00;;;;;;852867;23;896;-83
2022/08/14 00:48:44;;;;;;;;;;;27.90;62.60;;;;;;853256;23;845;-85
2022/08/14 00:49:05;;;;;;;;;;;27.80;64.10;;;;;;857016;23;1551;-83
2022/08/14 00:49:27;;;;;;;;;;;27.80;62.00;;;;;;857013;23;991;-86
2022/08/14 00:49:48;;;;;;;;;;;27.90;61.10;;;;;;856883;23;1514;-85
2022/08/14 00:50:10;;;;;;;;;;;27.90;60.90;;;;;;856865;23;1030;-84
2022/08/14 00:50:30;;;;;;;;;;;27.90;59.30;;;;;;855874;23;1247;-85
2022/08/14 00:50:53;;;;;;;;;;;27.90;58.50;;;;;;853029;23;762;-86
2022/08/14 00:51:14;;;;;;;;;;;27.80;60.30;;;;;;848661;23;1052;-85
2022/08/14 00:51:37;;;;;;;;;;;27.80;57.80;;;;;;850128;23;853;-85
2022/08/14 00:51:59;;;;;;;;;;;27.90;60.50;;;;;;852830;23;1932;-85
2022/08/14 00:52:21;;;;;;;;;;;27.80;60.10;;;;;;852670;23;886;-84
2022/08/14 00:52:42;;;;;;;;;;;27.90;59.00;;;;;;852592;23;782;-85
2022/08/14 00:53:04;;;;;;;;;;;27.80;58.70;;;;;;854545;23;822;-85
2022/08/14 00:53:25;;;;;;;;;;;;;;;;;;856905;23;781;-85
2022/08/14 00:53:49;;;;;;;;;;;27.80;60.10;;;;;;854335;23;1171;-84
2022/08/14 00:54:10;;;;;;;;;;;27.80;58.80;;;;;;856872;23;1347;-85
2022/08/14 00:54:31;;;;;;;;;;;27.80;58.20;;;;;;852692;23;1187;-87
2022/08/14 00:54:55;;;;;;;;;;;27.80;57.70;;;;;;848715;23;1049;-87
2022/08/14 00:55:17;;;;;;;;;;;27.80;56.60;;;;;;847950;23;1319;-84
2022/08/14 00:55:40;;;;;;;;;;;27.80;56.50;;;;;;842461;23;1090;-86
2022/08/14 00:56:01;;;;;;;;;;;27.80;55.80;;;;;;844640;23;799;-83
2022/08/14 00:56:23;;;;;;;;;;;27.80;56.50;;;;;;846721;23;865;-84
2022/08/14 00:56:44;;;;;;;;;;;;;;;;;;848661;23;890;-83
2022/08/14 00:57:05;;;;;;;;;;;27.80;59.00;;;;;;848929;23;731;-84
2022/08/14 00:57:27;;;;;;;;;;;27.80;59.00;;;;;;851996;23;774;-84
2022/08/14 00:58:30;;;;;;;;;;;27.80;57.80;;;;;;852860;23;608;-84
2022/08/14 00:58:51;;;;;;;;;;;27.80;59.10;;;;;;852879;23;806;-81
2022/08/14 00:59:11;;;;;;;;;;;27.80;59.20;;;;;;852235;23;1287;-82
2022/08/14 00:59:34;;;;;;;;;;;27.80;59.10;;;;;;852845;23;1155;-84
2022/08/14 00:59:56;;;;;;;;;;;;;;;;;;852977;23;790;-84
2022/08/14 01:00:16;;;;;;;;;;;27.80;57.10;;;;;;852999;23;868;-86
2022/08/14 01:00:38;;;;;;;;;;;27.80;57.80;;;;;;852756;23;880;-85
2022/08/14 01:01:01;;;;;;;;;;;27.80;56.80;;;;;;852918;23;787;-84
2022/08/14 01:01:21;;;;;;;;;;;27.70;56.40;;;;;;853940;23;1180;-85
2022/08/14 01:01:43;;;;;;;;;;;27.70;56.70;;;;;;856945;23;785;-83
2022/08/14 01:02:05;;;;;;;;;;;27.80;56.60;;;;;;857073;23;873;-85
2022/08/14 01:02:26;;;;;;;;;;;27.80;56.30;;;;;;857082;23;829;-84
2022/08/14 01:02:48;;;;;;;;;;;27.70;56.20;;;;;;856991;23;785;-84
2022/08/14 01:03:09;;;;;;;;;;;27.70;56.50;;;;;;852891;23;880;-84
2022/08/14 01:03:30;;;;;;;;;;;27.80;58.50;;;;;;852735;23;927;-84
2022/08/14 01:03:53;;;;;;;;;;;27.80;57.30;;;;;;848726;23;822;-82
2022/08/14 01:04:14;;;;;;;;;;;27.70;57.30;;;;;;848764;23;817;-83
2022/08/14 01:04:35;;;;;;;;;;;27.80;56.80;;;;;;848652;23;809;-85
2022/08/14 01:05:06;;;;;;;;;;;27.70;57.70;;;;;;850183;23;766;-85
2022/08/14 01:05:28;;;;;;;;;;;27.80;57.50;;;;;;852727;23;985;-85
2022/08/14 01:05:50;;;;;;;;;;;27.70;57.30;;;;;;856070;23;785;-83
2022/08/14 01:06:12;;;;;;;;;;;27.70;56.00;;;;;;857081;23;770;-84
2022/08/14 01:06:33;;;;;;;;;;;27.70;56.40;;;;;;857122;23;911;-85
2022/08/14 01:06:54;;;;;;;;;;;27.70;56.10;;;;;;857245;23;877;-85
2022/08/14 01:07:18;;;;;;;;;;;27.70;56.40;;;;;;857346;23;817;-84
2022/08/14 01:07:40;;;;;;;;;;;27.70;56.60;;;;;;857216;23;797;-85
2022/08/14 01:08:01;;;;;;;;;;;27.70;57.00;;;;;;856992;23;993;-85
2022/08/14 01:08:25;;;;;;;;;;;27.70;56.60;;;;;;857166;23;869;-85
2022/08/14 01:08:45;;;;;;;;;;;27.70;56.80;;;;;;857190;23;805;-84
2022/08/14 01:09:06;;;;;;;;;;;27.70;56.80;;;;;;848464;23;1119;-83
2022/08/14 01:09:28;;;;;;;;;;;27.70;56.30;;;;;;848631;23;952;-82
2022/08/14 01:09:57;;;;;;;;;;;27.70;56.70;;;;;;848658;23;838;-84
2022/08/14 01:10:18;;;;;;;;;;;27.70;56.40;;;;;;848482;23;1540;-83
2022/08/14 01:10:50;;;;;;;;;;;27.70;56.40;;;;;;844398;23;1070;-85
2022/08/14 01:11:14;;;;;;;;;;;27.70;57.00;;;;;;852776;23;919;-84
2022/08/14 01:11:36;;;;;;;;;;;27.70;56.10;;;;;;852937;23;789;-84
2022/08/14 01:11:57;;;;;;;;;;;27.70;56.00;;;;;;848751;23;1908;-84
2022/08/14 01:12:19;;;;;;;;;;;27.70;57.90;;;;;;848604;23;880;-85
2022/08/14 01:12:40;;;;;;;;;;;27.70;56.00;;;;;;852431;23;805;-85
2022/08/14 01:13:00;;;;;;;;;;;27.70;55.90;;;;;;852744;23;910;-81
2022/08/14 01:13:26;;;;;;;;;;;27.70;55.90;;;;;;852785;23;845;-83
2022/08/14 01:13:49;;;;;;;;;;;27.70;56.60;;;;;;854660;23;849;-82
2022/08/14 01:14:10;;;;;;;;;;;27.70;55.60;;;;;;857209;23;846;-84
2022/08/14 01:14:31;;;;;;;;;;;27.60;56.00;;;;;;857171;23;836;-83
2022/08/14 01:14:54;;;;;;;;;;;27.70;56.00;;;;;;857229;23;829;-82
2022/08/14 01:15:19;;;;;;;;;;;27.70;56.30;;;;;;856995;23;861;-82
2022/08/14 01:15:40;;;;;;;;;;;27.70;56.10;;;;;;857223;23;881;-84
2022/08/14 01:16:02;;;;;;;;;;;27.70;56.60;;;;;;857182;23;820;-86
2022/08/14 01:16:23;;;;;;;;;;;27.70;56.60;;;;;;857209;23;786;-81
2022/08/14 01:16:45;;;;;;;;;;;27.70;56.00;;;;;;856957;23;846;-83
2022/08/14 01:17:06;;;;;;;;;;;27.70;56.20;;;;;;857144;23;939;-83
2022/08/14 01:21:02;;;;;;;;;;;27.60;56.60;;;;;;857065;23;615;-87
2022/08/14 01:21:45;;;;;;;;;;;27.70;54.40;;;;;;852265;23;876;-80
2022/08/14 01:22:06;;;;;;;;;;;27.60;55.60;;;;;;852714;23;938;-81
2022/08/14 01:22:26;;;;;;;;;;;27.60;55.30;;;;;;852815;23;949;-85
2022/08/14 01:22:50;;;;;;;;;;;27.60;55.00;;;;;;852690;23;782;-85
2022/08/14 01:23:11;;;;;;;;;;;27.60;55.00;;;;;;854225;23;837;-85
2022/08/14 01:23:33;;;;;;;;;;;27.60;56.00;;;;;;857167;23;911;-84
2022/08/14 01:23:53;;;;;;;;;;;27.60;54.70;;;;;;857142;23;865;-85
2022/08/14 01:24:16;;;;;;;;;;;;;;;;;;857079;23;817;-87
2022/08/14 01:24:36;;;;;;;;;;;27.60;55.20;;;;;;857154;23;860;-85
2022/08/14 01:24:57;;;;;;;;;;;27.60;55.30;;;;;;856807;23;773;-82
2022/08/14 01:25:17;;;;;;;;;;;27.60;55.30;;;;;;857248;23;824;-86
2022/08/14 01:25:38;;;;;;;;;;;27.60;54.80;;;;;;857136;23;920;-83
2022/08/14 01:25:58;;;;;;;;;;;27.60;54.00;;;;;;857100;23;838;-83
2022/08/14 01:26:22;;;;;;;;;;;27.60;54.00;;;;;;857046;23;950;-85
2022/08/14 01:26:42;;;;;;;;;;;27.60;54.00;;;;;;857070;23;877;-83
2022/08/14 01:27:04;;;;;;;;;;;27.60;54.00;;;;;;857018;23;785;-82
2022/08/14 01:27:25;;;;;;;;;;;;;;;;;;857175;23;828;-84
2022/08/14 01:27:48;;;;;;;;;;;27.60;54.30;;;;;;857241;23;805;-86
2022/08/14 01:28:09;;;;;;;;;;;27.60;55.70;;;;;;857104;23;916;-84
2022/08/14 01:28:36;;;;;;;;;;;27.60;55.00;;;;;;857235;23;754;-85
2022/08/14 01:28:58;;;;;;;;;;;27.60;54.30;;;;;;857191;23;805;-86
2022/08/14 01:29:19;;;;;;;;;;;27.60;54.20;;;;;;857293;23;786;-84
2022/08/14 01:29:39;;;;;;;;;;;27.50;54.30;;;;;;857174;23;846;-85
2022/08/14 01:30:00;;;;;;;;;;;27.50;54.00;;;;;;857055;23;901;-85
2022/08/14 01:30:22;;;;;;;;;;;27.50;55.30;;;;;;857167;23;944;-86
2022/08/14 01:30:43;;;;;;;;;;;27.60;55.10;;;;;;857226;23;789;-84
2022/08/14 01:31:07;;;;;;;;;;;27.50;54.50;;;;;;857100;23;872;-84
2022/08/14 01:31:29;;;;;;;;;;;27.60;54.30;;;;;;857103;23;817;-85
2022/08/14 01:31:51;;;;;;;;;;;27.60;56.20;;;;;;857102;23;1892;-84
2022/08/14 01:32:11;;;;;;;;;;;27.50;55.20;;;;;;857078;23;878;-82
2022/08/14 01:32:32;;;;;;;;;;;27.50;55.10;;;;;;857167;23;905;-85
2022/08/14 01:32:53;;;;;;;;;;;27.60;56.70;;;;;;857113;23;762;-85
2022/08/14 01:33:13;;;;;;;;;;;27.60;55.70;;;;;;857240;23;820;-86
2022/08/14 01:33:39;;;;;;;;;;;27.60;55.00;;;;;;856408;23;1365;-85
2022/08/14 01:34:01;;;;;;;;;;;27.60;55.40;;;;;;852541;23;1090;-83
2022/08/14 01:34:25;;;;;;;;;;;27.60;55.60;;;;;;852831;23;781;-86
2022/08/14 01:34:50;;;;;;;;;;;27.60;55.70;;;;;;852830;23;865;-82
2022/08/14 01:35:11;;;;;;;;;;;27.60;55.10;;;;;;852536;23;930;-86
2022/08/14 01:35:31;;;;;;;;;;;27.60;55.30;;;;;;852316;23;892;-83
2022/08/14 01:35:53;;;;;;;;;;;27.60;55.30;;;;;;855329;23;968;-86
2022/08/14 01:36:18;;;;;;;;;;;27.60;55.40;;;;;;857036;23;861;-85
2022/08/14 01:36:40;;;;;;;;;;;27.60;54.90;;;;;;856984;23;813;-83
2022/08/14 01:37:03;;;;;;;;;;;27.60;55.50;;;;;;857223;23;873;-86
2022/08/14 01:37:24;;;;;;;;;;;27.60;55.40;;;;;;857092;23;1406;-83
2022/08/14 01:37:48;;;;;;;;;;;27.60;55.60;;;;;;857100;23;845;-82
2022/08/14 01:38:11;;;;;;;;;;;27.60;55.50;;;;;;857100;23;877;-85
2022/08/14 01:38:33;;;;;;;;;;;27.60;54.60;;;;;;857317;23;813;-85
2022/08/14 01:38:56;;;;;;;;;;;27.60;54.00;;;;;;857004;23;893;-83
2022/08/14 01:39:17;;;;;;;;;;;27.60;54.20;;;;;;856991;23;848;-85
2022/08/14 01:39:38;;;;;;;;;;;27.60;54.50;;;;;;857080;23;770;-82
2022/08/14 01:40:00;;;;;;;;;;;27.60;54.50;;;;;;857181;23;790;-84
2022/08/14 01:40:24;;;;;;;;;;;27.60;54.20;;;;;;852204;23;1247;-85
2022/08/14 01:40:46;;;;;;;;;;;27.60;55.60;;;;;;852672;23;806;-84
2022/08/14 01:41:08;;;;;;;;;;;27.70;54.70;;;;;;852738;23;858;-86
2022/08/14 01:41:28;;;;;;;;;;;27.60;54.80;;;;;;852824;23;854;-84
2022/08/14 01:41:55;;;;;;;;;;;27.60;55.10;;;;;;852566;23;893;-82
2022/08/14 01:42:16;;;;;;;;;;;27.60;55.20;;;;;;852664;23;826;-85
2022/08/14 01:42:36;;;;;;;;;;;27.60;55.20;;;;;;855098;23;858;-84
2022/08/14 01:42:57;;;;;;;;;;;27.60;55.30;;;;;;857139;23;842;-82
2022/08/14 01:43:17;;;;;;;;;;;27.60;54.80;;;;;;856510;23;955;-83
2022/08/14 01:43:50;;;;;;;;;;;27.60;54.30;;;;;;857222;23;940;-83
2022/08/14 01:44:14;;;;;;;;;;;27.70;54.70;;;;;;857052;23;909;-84
2022/08/14 01:44:37;;;;;;;;;;;27.60;55.00;;;;;;856944;23;904;-85
2022/08/14 01:44:58;;;;;;;;;;;27.60;55.40;;;;;;857003;23;806;-83
2022/08/14 01:45:19;;;;;;;;;;;27.60;55.00;;;;;;857175;23;901;-83
2022/08/14 01:45:40;;;;;;;;;;;27.60;55.50;;;;;;857064;23;956;-83
2022/08/14 01:46:01;;;;;;;;;;;27.60;55.40;;;;;;856965;23;755;-86
2022/08/14 01:46:23;;;;;;;;;;;27.60;54.80;;;;;;857050;23;944;-85
2022/08/14 01:46:44;;;;;;;;;;;27.60;54.60;;;;;;857077;23;831;-84
2022/08/14 01:47:11;;;;;;;;;;;27.70;54.50;;;;;;857031;23;925;-85
2022/08/14 01:47:31;;;;;;;;;;;27.60;54.20;;;;;;857061;23;817;-84
2022/08/14 01:47:52;;;;;;;;;;;27.60;54.20;;;;;;857255;23;897;-85
2022/08/14 01:48:14;;;;;;;;;;;27.60;54.20;;;;;;856995;23;801;-83
2022/08/14 01:48:35;;;;;;;;;;;27.60;54.60;;;;;;857005;23;853;-81
2022/08/14 01:48:56;;;;;;;;;;;27.60;54.80;;;;;;857086;23;920;-83
2022/08/14 01:49:18;;;;;;;;;;;27.70;55.40;;;;;;857130;23;956;-84
2022/08/14 01:49:39;;;;;;;;;;;27.70;55.60;;;;;;857101;23;770;-84
2022/08/14 01:50:00;;;;;;;;;;;27.70;55.40;;;;;;856817;23;904;-83
2022/08/14 01:50:20;;;;;;;;;;;27.70;54.80;;;;;;856910;23;884;-85
2022/08/14 01:50:42;;;;;;;;;;;27.70;54.30;;;;;;857171;23;865;-84
2022/08/14 01:51:02;;;;;;;;;;;27.70;54.10;;;;;;857192;23;734;-85
2022/08/14 01:51:27;;;;;;;;;;;27.70;54.10;;;;;;852573;23;1677;-86
2022/08/14 01:51:53;;;;;;;;;;;27.70;54.30;;;;;;852609;23;1897;-84
2022/08/14 01:52:13;;;;;;;;;;;27.70;54.70;;;;;;852653;23;850;-86
2022/08/14 01:52:35;;;;;;;;;;;27.70;54.70;;;;;;852716;23;940;-87
2022/08/14 01:52:56;;;;;;;;;;;27.70;54.80;;;;;;852809;23;916;-84
2022/08/14 01:53:16;;;;;;;;;;;27.70;54.30;;;;;;855555;23;882;-86
2022/08/14 01:53:41;;;;;;;;;;;27.70;54.10;;;;;;857017;23;727;-81
2022/08/14 01:54:08;;;;;;;;;;;27.70;54.20;;;;;;857075;23;822;-84
2022/08/14 01:54:28;;;;;;;;;;;27.70;54.30;;;;;;856779;23;842;-83
2022/08/14 01:54:49;;;;;;;;;;;27.70;55.00;;;;;;855553;23;898;-86
2022/08/14 01:55:13;;;;;;;;;;;27.70;54.80;;;;;;857185;23;786;-84
2022/08/14 01:55:34;;;;;;;;;;;27.70;55.00;;;;;;857192;23;852;-84
2022/08/14 01:55:56;;;;;;;;;;;;;;;;;;857149;23;837;-85
2022/08/14 01:56:17;;;;;;;;;;;27.70;54.30;;;;;;857049;23;906;-84
2022/08/14 01:56:39;;;;;;;;;;;27.70;56.00;;;;;;856972;23;777;-85
2022/08/14 01:57:00;;;;;;;;;;;27.70;54.90;;;;;;857061;23;917;-84
2022/08/14 01:57:21;;;;;;;;;;;27.70;54.80;;;;;;857378;23;790;-86
2022/08/14 01:57:43;;;;;;;;;;;27.70;54.50;;;;;;856958;23;871;-84
2022/08/14 01:58:04;;;;;;;;;;;27.70;54.20;;;;;;857164;23;829;-84
2022/08/14 01:58:28;;;;;;;;;;;27.70;54.50;;;;;;856981;23;817;-87
2022/08/14 01:58:49;;;;;;;;;;;27.70;54.50;;;;;;856906;23;948;-84
2022/08/14 01:59:22;;;;;;;;;;;27.70;54.50;;;;;;852614;23;1415;-82
2022/08/14 01:59:43;;;;;;;;;;;27.70;54.30;;;;;;852768;23;782;-85
2022/08/14 02:00:09;;;;;;;;;;;27.70;54.20;;;;;;852898;23;762;-84
2022/08/14 02:00:29;;;;;;;;;;;27.70;54.30;;;;;;852775;23;805;-84
2022/08/14 02:00:52;;;;;;;;;;;27.70;54.70;;;;;;852592;23;766;-82
2022/08/14 02:01:14;;;;;;;;;;;27.70;54.50;;;;;;857178;23;881;-82
2022/08/14 02:01:36;;;;;;;;;;;27.70;54.30;;;;;;857170;23;762;-82
2022/08/14 02:01:58;;;;;;;;;;;27.70;54.30;;;;;;857198;23;789;-81
2022/08/14 02:02:19;;;;;;;;;;;27.70;54.10;;;;;;857147;23;735;-82
2022/08/14 02:02:39;;;;;;;;;;;27.80;54.30;;;;;;856866;23;857;-81
2022/08/14 02:03:00;;;;;;;;;;;27.70;54.30;;;;;;851972;23;1243;-84
2022/08/14 02:03:31;;;;;;;;;;;27.70;54.20;;;;;;852750;23;782;-84
2022/08/14 02:03:51;;;;;;;;;;;27.70;54.20;;;;;;852891;23;778;-81
2022/08/14 02:04:12;;;;;;;;;;;27.70;54.30;;;;;;852672;23;890;-81
2022/08/14 02:04:34;;;;;;;;;;;27.70;56.80;;;;;;852798;23;810;-80
2022/08/14 02:04:55;;;;;;;;;;;27.70;54.30;;;;;;855625;23;1071;-82
2022/08/14 02:05:16;;;;;;;;;;;27.70;54.30;;;;;;856983;23;867;-82
2022/08/14 02:05:37;;;;;;;;;;;27.70;54.10;;;;;;856936;23;842;-81
2022/08/14 02:05:58;;;;;;;;;;;27.70;54.20;;;;;;857174;23;821;-83
2022/08/14 02:06:20;;;;;;;;;;;27.70;54.20;;;;;;856994;23;798;-83
2022/08/14 02:06:40;;;;;;;;;;;27.70;54.50;;;;;;857005;23;845;-82
2022/08/14 02:07:02;;;;;;;;;;;27.70;54.60;;;;;;856325;23;1435;-82
2022/08/14 02:07:22;;;;;;;;;;;27.70;54.10;;;;;;857239;23;825;-82
2022/08/14 02:07:45;;;;;;;;;;;27.70;54.10;;;;;;857086;23;809;-81
2022/08/14 02:08:07;;;;;;;;;;;27.70;54.00;;;;;;852198;23;905;-82
2022/08/14 02:08:31;;;;;;;;;;;27.70;54.10;;;;;;852555;23;810;-83
2022/08/14 02:08:53;;;;;;;;;;;27.70;55.30;;;;;;852509;23;886;-83
2022/08/14 02:09:13;;;;;;;;;;;27.70;54.10;;;;;;852688;23;759;-83
2022/08/14 02:09:37;;;;;;;;;;;27.70;54.10;;;;;;852534;23;846;-84
2022/08/14 02:09:58;;;;;;;;;;;27.70;54.10;;;;;;855271;23;849;-82
2022/08/14 02:10:20;;;;;;;;;;;27.70;54.30;;;;;;857044;23;888;-83
2022/08/14 02:10:41;;;;;;;;;;;27.80;54.20;;;;;;856642;23;1453;-82
2022/08/14 02:11:21;;;;;;;;;;;27.70;54.00;;;;;;857103;23;814;-82
2022/08/14 02:11:42;;;;;;;;;;;27.70;54.10;;;;;;857175;23;786;-84
2022/08/14 02:12:03;;;;;;;;;;;;;;;;;;852101;23;1885;-82
2022/08/14 02:12:24;;;;;;;;;;;27.80;54.10;;;;;;852776;23;838;-84
2022/08/14 02:12:45;;;;;;;;;;;27.80;54.10;;;;;;852625;23;817;-84
2022/08/14 02:13:07;;;;;;;;;;;27.80;55.10;;;;;;852541;23;941;-82
2022/08/14 02:13:27;;;;;;;;;;;27.70;54.10;;;;;;851468;23;977;-82
2022/08/14 02:13:58;;;;;;;;;;;27.80;53.80;;;;;;853666;23;825;-81
2022/08/14 02:14:18;;;;;;;;;;;27.70;53.80;;;;;;857101;23;932;-83
2022/08/14 02:14:39;;;;;;;;;;;27.80;54.20;;;;;;857015;23;905;-82
2022/08/14 02:15:00;;;;;;;;;;;27.80;54.10;;;;;;857138;23;790;-81
2022/08/14 02:15:20;;;;;;;;;;;27.70;53.70;;;;;;856962;23;793;-81
2022/08/14 02:15:41;;;;;;;;;;;27.70;53.50;;;;;;857173;23;794;-81
2022/08/14 02:16:02;;;;;;;;;;;27.70;53.80;;;;;;857234;23;809;-82
2022/08/14 02:16:28;;;;;;;;;;;27.70;53.80;;;;;;857164;23;782;-81
2022/08/14 02:16:52;;;;;;;;;;;27.80;54.00;;;;;;856976;23;830;-83
2022/08/14 02:17:12;;;;;;;;;;;27.70;53.70;;;;;;857231;23;747;-83
2022/08/14 02:17:35;;;;;;;;;;;27.70;53.70;;;;;;857027;23;821;-82